sensor_id;sensor_type;location;lat;lon;timestamp;temperature;humidity
71237;DHT22;58984;51.960;5.582;2023-07-22T00:02:16;23.70;49.00
71237;DHT22;58984;51.960;5.582;2023-07-22T00:04:42;23.70;49.00
71237;DHT22;58984;51.960;5.582;2023-07-22T00:07:07;23.70;49.00
71237;DHT22;58984;51.960;5.582;2023-07-22T00:09:33;23.70;49.00
71237;DHT22;58984;51.960;5.582;2023-07-22T00:11:59;23.70;49.10
71237;DHT22;58984;51.960;5.582;2023-07-22T00:14:25;23.70;49.10
71237;DHT22;58984;51.960;5.582;2023-07-22T00:16:51;23.70;49.10
71237;DHT22;58984;51.960;5.582;2023-07-22T00:19:16;23.60;49.40
71237;DHT22;58984;51.960;5.582;2023-07-22T00:21:42;23.70;49.20
71237;DHT22;58984;51.960;5.582;2023-07-22T00:24:07;23.60;49.20
71237;DHT22;58984;51.960;5.582;2023-07-22T00:26:33;23.60;49.20
71237;DHT22;58984;51.960;5.582;2023-07-22T00:28:59;23.60;49.20
71237;DHT22;58984;51.960;5.582;2023-07-22T00:31:25;23.60;49.30
71237;DHT22;58984;51.960;5.582;2023-07-22T00:33:50;23.60;49.40
71237;DHT22;58984;51.960;5.582;2023-07-22T00:36:16;23.60;49.40
71237;DHT22;58984;51.960;5.582;2023-07-22T00:38:41;23.50;49.40
71237;DHT22;58984;51.960;5.582;2023-07-22T00:41:07;23.60;49.50
71237;DHT22;58984;51.960;5.582;2023-07-22T00:43:33;23.50;49.40
71237;DHT22;58984;51.960;5.582;2023-07-22T00:45:58;23.50;49.40
71237;DHT22;58984;51.960;5.582;2023-07-22T00:48:25;23.50;49.50
71237;DHT22;58984;51.960;5.582;2023-07-22T00:50:52;23.50;49.50
71237;DHT22;58984;51.960;5.582;2023-07-22T00:53:18;23.50;49.50
71237;DHT22;58984;51.960;5.582;2023-07-22T00:55:45;23.50;49.60
71237;DHT22;58984;51.960;5.582;2023-07-22T00:58:10;23.50;49.60
71237;DHT22;58984;51.960;5.582;2023-07-22T01:00:36;23.50;49.70
71237;DHT22;58984;51.960;5.582;2023-07-22T01:03:02;23.50;49.70
71237;DHT22;58984;51.960;5.582;2023-07-22T01:05:29;23.40;49.70
71237;DHT22;58984;51.960;5.582;2023-07-22T01:07:55;23.40;49.70
71237;DHT22;58984;51.960;5.582;2023-07-22T01:10:22;23.40;49.70
71237;DHT22;58984;51.960;5.582;2023-07-22T01:12:48;23.40;49.80
71237;DHT22;58984;51.960;5.582;2023-07-22T01:15:14;23.40;49.80
71237;DHT22;58984;51.960;5.582;2023-07-22T01:17:39;23.40;49.80
71237;DHT22;58984;51.960;5.582;2023-07-22T01:20:06;23.40;49.80
71237;DHT22;58984;51.960;5.582;2023-07-22T01:22:33;23.40;49.90
71237;DHT22;58984;51.960;5.582;2023-07-22T01:24:59;23.40;50.00
71237;DHT22;58984;51.960;5.582;2023-07-22T01:27:25;23.40;50.10
71237;DHT22;58984;51.960;5.582;2023-07-22T01:29:51;23.30;50.00
71237;DHT22;58984;51.960;5.582;2023-07-22T01:32:17;23.30;50.10
71237;DHT22;58984;51.960;5.582;2023-07-22T01:34:43;23.30;50.00
71237;DHT22;58984;51.960;5.582;2023-07-22T01:37:08;23.30;50.10
71237;DHT22;58984;51.960;5.582;2023-07-22T01:39:35;23.30;50.10
71237;DHT22;58984;51.960;5.582;2023-07-22T01:42:01;23.30;50.10
71237;DHT22;58984;51.960;5.582;2023-07-22T01:44:27;23.30;50.20
71237;DHT22;58984;51.960;5.582;2023-07-22T01:46:52;23.30;50.20
71237;DHT22;58984;51.960;5.582;2023-07-22T01:49:18;23.30;50.20
71237;DHT22;58984;51.960;5.582;2023-07-22T01:51:44;23.30;50.30
71237;DHT22;58984;51.960;5.582;2023-07-22T01:54:11;23.30;50.30
71237;DHT22;58984;51.960;5.582;2023-07-22T01:56:38;23.30;51.00
71237;DHT22;58984;51.960;5.582;2023-07-22T01:59:04;23.20;50.40
71237;DHT22;58984;51.960;5.582;2023-07-22T02:01:30;23.30;51.10
71237;DHT22;58984;51.960;5.582;2023-07-22T02:03:56;23.20;50.40
71237;DHT22;58984;51.960;5.582;2023-07-22T02:06:22;23.20;50.50
71237;DHT22;58984;51.960;5.582;2023-07-22T02:08:48;23.20;50.50
71237;DHT22;58984;51.960;5.582;2023-07-22T02:11:13;23.20;50.50
71237;DHT22;58984;51.960;5.582;2023-07-22T02:13:39;23.20;50.50
71237;DHT22;58984;51.960;5.582;2023-07-22T02:16:05;23.20;50.60
71237;DHT22;58984;51.960;5.582;2023-07-22T02:18:30;23.20;50.60
71237;DHT22;58984;51.960;5.582;2023-07-22T02:20:56;23.20;50.60
71237;DHT22;58984;51.960;5.582;2023-07-22T02:23:23;23.20;50.70
71237;DHT22;58984;51.960;5.582;2023-07-22T02:25:52;23.10;50.60
71237;DHT22;58984;51.960;5.582;2023-07-22T02:28:19;23.10;50.70
71237;DHT22;58984;51.960;5.582;2023-07-22T02:30:48;23.10;50.70
71237;DHT22;58984;51.960;5.582;2023-07-22T02:33:14;23.10;50.70
71237;DHT22;58984;51.960;5.582;2023-07-22T02:35:41;23.10;50.70
71237;DHT22;58984;51.960;5.582;2023-07-22T02:38:07;23.00;50.70
71237;DHT22;58984;51.960;5.582;2023-07-22T02:40:37;23.10;50.80
71237;DHT22;58984;51.960;5.582;2023-07-22T02:43:03;23.00;50.80
71237;DHT22;58984;51.960;5.582;2023-07-22T02:45:29;23.00;50.70
71237;DHT22;58984;51.960;5.582;2023-07-22T02:47:55;23.00;50.80
71237;DHT22;58984;51.960;5.582;2023-07-22T02:50:20;23.00;50.80
71237;DHT22;58984;51.960;5.582;2023-07-22T02:52:46;23.00;50.90
71237;DHT22;58984;51.960;5.582;2023-07-22T02:55:14;23.00;50.90
71237;DHT22;58984;51.960;5.582;2023-07-22T02:57:41;23.00;51.60
71237;DHT22;58984;51.960;5.582;2023-07-22T03:00:08;23.00;51.00
71237;DHT22;58984;51.960;5.582;2023-07-22T03:02:37;23.00;51.00
71237;DHT22;58984;51.960;5.582;2023-07-22T03:05:08;22.90;50.90
71237;DHT22;58984;51.960;5.582;2023-07-22T03:07:38;22.90;50.90
71237;DHT22;58984;51.960;5.582;2023-07-22T03:10:05;22.80;50.80
71237;DHT22;58984;51.960;5.582;2023-07-22T03:12:32;22.90;50.90
71237;DHT22;58984;51.960;5.582;2023-07-22T03:14:57;22.90;50.90
71237;DHT22;58984;51.960;5.582;2023-07-22T03:17:23;22.90;50.90
71237;DHT22;58984;51.960;5.582;2023-07-22T03:19:48;22.90;50.90
71237;DHT22;58984;51.960;5.582;2023-07-22T03:22:15;22.80;50.80
71237;DHT22;58984;51.960;5.582;2023-07-22T03:24:44;22.90;50.90
71237;DHT22;58984;51.960;5.582;2023-07-22T03:27:11;22.90;50.90
71237;DHT22;58984;51.960;5.582;2023-07-22T03:29:37;22.90;50.90
71237;DHT22;58984;51.960;5.582;2023-07-22T03:32:03;22.80;50.80
71237;DHT22;58984;51.960;5.582;2023-07-22T03:34:30;22.80;50.80
71237;DHT22;58984;51.960;5.582;2023-07-22T03:36:55;22.70;50.70
71237;DHT22;58984;51.960;5.582;2023-07-22T03:39:21;22.70;50.70
71237;DHT22;58984;51.960;5.582;2023-07-22T03:41:47;22.80;50.80
71237;DHT22;58984;51.960;5.582;2023-07-22T03:44:12;22.80;50.80
71237;DHT22;58984;51.960;5.582;2023-07-22T03:46:38;22.80;50.90
71237;DHT22;58984;51.960;5.582;2023-07-22T03:49:04;22.70;51.00
71237;DHT22;58984;51.960;5.582;2023-07-22T03:51:30;22.70;51.00
71237;DHT22;58984;51.960;5.582;2023-07-22T03:53:56;22.70;51.00
71237;DHT22;58984;51.960;5.582;2023-07-22T03:56:21;22.70;51.10
71237;DHT22;58984;51.960;5.582;2023-07-22T03:58:49;22.70;51.10
71237;DHT22;58984;51.960;5.582;2023-07-22T04:01:15;22.70;51.20
71237;DHT22;58984;51.960;5.582;2023-07-22T04:03:41;22.70;51.90
71237;DHT22;58984;51.960;5.582;2023-07-22T04:06:06;22.70;51.20
71237;DHT22;58984;51.960;5.582;2023-07-22T04:08:32;22.60;51.20
71237;DHT22;58984;51.960;5.582;2023-07-22T04:10:58;22.60;51.30
71237;DHT22;58984;51.960;5.582;2023-07-22T04:13:24;22.60;51.30
71237;DHT22;58984;51.960;5.582;2023-07-22T04:15:50;22.60;51.30
71237;DHT22;58984;51.960;5.582;2023-07-22T04:18:17;22.60;51.40
71237;DHT22;58984;51.960;5.582;2023-07-22T04:20:43;22.60;51.40
71237;DHT22;58984;51.960;5.582;2023-07-22T04:23:09;22.60;51.40
71237;DHT22;58984;51.960;5.582;2023-07-22T04:25:42;22.60;51.50
71237;DHT22;58984;51.960;5.582;2023-07-22T04:28:08;22.50;51.50
71237;DHT22;58984;51.960;5.582;2023-07-22T04:30:35;22.60;51.60
71237;DHT22;58984;51.960;5.582;2023-07-22T04:33:00;22.60;51.70
71237;DHT22;58984;51.960;5.582;2023-07-22T04:35:26;22.50;51.60
71237;DHT22;58984;51.960;5.582;2023-07-22T04:37:51;22.60;51.70
71237;DHT22;58984;51.960;5.582;2023-07-22T04:40:19;22.50;51.70
71237;DHT22;58984;51.960;5.582;2023-07-22T04:42:45;22.50;51.70
71237;DHT22;58984;51.960;5.582;2023-07-22T04:45:11;22.50;51.70
71237;DHT22;58984;51.960;5.582;2023-07-22T04:47:37;22.50;51.80
71237;DHT22;58984;51.960;5.582;2023-07-22T04:50:04;22.50;51.70
71237;DHT22;58984;51.960;5.582;2023-07-22T04:52:34;22.50;51.80
71237;DHT22;58984;51.960;5.582;2023-07-22T04:55:00;22.50;51.80
71237;DHT22;58984;51.960;5.582;2023-07-22T04:57:26;22.50;51.90
71237;DHT22;58984;51.960;5.582;2023-07-22T04:59:52;22.50;51.90
71237;DHT22;58984;51.960;5.582;2023-07-22T05:02:17;22.50;51.90
71237;DHT22;58984;51.960;5.582;2023-07-22T05:04:43;22.50;51.90
71237;DHT22;58984;51.960;5.582;2023-07-22T05:07:08;22.50;52.00
71237;DHT22;58984;51.960;5.582;2023-07-22T05:09:35;22.40;51.90
71237;DHT22;58984;51.960;5.582;2023-07-22T05:12:01;22.50;52.00
71237;DHT22;58984;51.960;5.582;2023-07-22T05:14:27;22.50;52.00
71237;DHT22;58984;51.960;5.582;2023-07-22T05:16:52;22.50;52.10
71237;DHT22;58984;51.960;5.582;2023-07-22T05:19:18;22.50;52.10
71237;DHT22;58984;51.960;5.582;2023-07-22T05:21:44;22.50;52.10
71237;DHT22;58984;51.960;5.582;2023-07-22T05:24:09;22.40;52.10
71237;DHT22;58984;51.960;5.582;2023-07-22T05:26:35;22.40;52.10
71237;DHT22;58984;51.960;5.582;2023-07-22T05:29:00;22.50;52.20
71237;DHT22;58984;51.960;5.582;2023-07-22T05:31:26;22.50;52.20
71237;DHT22;58984;51.960;5.582;2023-07-22T05:33:52;22.40;52.10
71237;DHT22;58984;51.960;5.582;2023-07-22T05:36:17;22.40;52.20
71237;DHT22;58984;51.960;5.582;2023-07-22T05:38:43;22.50;52.30
71237;DHT22;58984;51.960;5.582;2023-07-22T05:41:08;22.50;52.40
71237;DHT22;58984;51.960;5.582;2023-07-22T05:43:34;22.50;53.00
71237;DHT22;58984;51.960;5.582;2023-07-22T05:46:00;22.50;52.50
71237;DHT22;58984;51.960;5.582;2023-07-22T05:48:25;22.40;52.30
71237;DHT22;58984;51.960;5.582;2023-07-22T05:50:51;22.40;52.30
71237;DHT22;58984;51.960;5.582;2023-07-22T05:53:17;22.50;52.50
71237;DHT22;58984;51.960;5.582;2023-07-22T05:55:42;22.40;52.40
71237;DHT22;58984;51.960;5.582;2023-07-22T05:58:15;22.40;52.40
71237;DHT22;58984;51.960;5.582;2023-07-22T06:00:41;22.40;52.50
71237;DHT22;58984;51.960;5.582;2023-07-22T06:03:06;22.50;52.60
71237;DHT22;58984;51.960;5.582;2023-07-22T06:05:32;22.50;52.60
71237;DHT22;58984;51.960;5.582;2023-07-22T06:07:57;22.50;52.70
71237;DHT22;58984;51.960;5.582;2023-07-22T06:10:23;22.50;53.30
71237;DHT22;58984;51.960;5.582;2023-07-22T06:12:49;22.50;52.30
71237;DHT22;58984;51.960;5.582;2023-07-22T06:15:14;22.50;52.80
71237;DHT22;58984;51.960;5.582;2023-07-22T06:17:40;22.50;52.70
71237;DHT22;58984;51.960;5.582;2023-07-22T06:20:06;22.50;52.70
71237;DHT22;58984;51.960;5.582;2023-07-22T06:22:31;22.50;52.70
71237;DHT22;58984;51.960;5.582;2023-07-22T06:24:57;22.50;52.80
71237;DHT22;58984;51.960;5.582;2023-07-22T06:27:23;22.50;52.80
71237;DHT22;58984;51.960;5.582;2023-07-22T06:29:48;22.50;52.70
71237;DHT22;58984;51.960;5.582;2023-07-22T06:32:14;22.50;52.80
71237;DHT22;58984;51.960;5.582;2023-07-22T06:34:39;22.50;52.80
71237;DHT22;58984;51.960;5.582;2023-07-22T06:37:05;22.50;53.40
71237;DHT22;58984;51.960;5.582;2023-07-22T06:39:30;22.50;53.50
71237;DHT22;58984;51.960;5.582;2023-07-22T06:41:56;22.50;52.80
71237;DHT22;58984;51.960;5.582;2023-07-22T06:44:22;22.50;52.80
71237;DHT22;58984;51.960;5.582;2023-07-22T06:46:47;22.50;52.80
71237;DHT22;58984;51.960;5.582;2023-07-22T06:49:13;22.60;52.90
71237;DHT22;58984;51.960;5.582;2023-07-22T06:51:38;22.60;52.80
71237;DHT22;58984;51.960;5.582;2023-07-22T06:54:04;22.60;52.80
71237;DHT22;58984;51.960;5.582;2023-07-22T06:56:29;22.60;52.80
71237;DHT22;58984;51.960;5.582;2023-07-22T06:58:55;22.60;52.80
71237;DHT22;58984;51.960;5.582;2023-07-22T07:01:21;22.60;53.50
71237;DHT22;58984;51.960;5.582;2023-07-22T07:03:46;22.60;53.00
71237;DHT22;58984;51.960;5.582;2023-07-22T07:06:12;22.60;53.00
71237;DHT22;58984;51.960;5.582;2023-07-22T07:08:37;22.60;53.00
71237;DHT22;58984;51.960;5.582;2023-07-22T07:11:03;22.60;53.00
71237;DHT22;58984;51.960;5.582;2023-07-22T07:13:29;22.60;53.00
71237;DHT22;58984;51.960;5.582;2023-07-22T07:15:54;22.70;53.10
71237;DHT22;58984;51.960;5.582;2023-07-22T07:18:20;22.70;53.10
71237;DHT22;58984;51.960;5.582;2023-07-22T07:20:46;22.70;53.10
71237;DHT22;58984;51.960;5.582;2023-07-22T07:23:13;22.70;53.80
71237;DHT22;58984;51.960;5.582;2023-07-22T07:25:38;22.70;53.10
71237;DHT22;58984;51.960;5.582;2023-07-22T07:28:04;22.70;53.10
71237;DHT22;58984;51.960;5.582;2023-07-22T07:30:30;22.70;53.10
71237;DHT22;58984;51.960;5.582;2023-07-22T07:32:56;22.70;53.00
71237;DHT22;58984;51.960;5.582;2023-07-22T07:35:22;22.70;53.10
71237;DHT22;58984;51.960;5.582;2023-07-22T07:37:47;22.70;53.10
71237;DHT22;58984;51.960;5.582;2023-07-22T07:40:13;22.80;53.10
71237;DHT22;58984;51.960;5.582;2023-07-22T07:42:38;22.80;53.10
71237;DHT22;58984;51.960;5.582;2023-07-22T07:45:04;22.80;53.10
71237;DHT22;58984;51.960;5.582;2023-07-22T07:47:30;22.80;53.00
71237;DHT22;58984;51.960;5.582;2023-07-22T07:49:56;22.80;53.00
71237;DHT22;58984;51.960;5.582;2023-07-22T07:52:21;22.80;53.00
71237;DHT22;58984;51.960;5.582;2023-07-22T07:54:47;22.90;53.20
71237;DHT22;58984;51.960;5.582;2023-07-22T07:57:13;22.90;53.10
71237;DHT22;58984;51.960;5.582;2023-07-22T07:59:39;22.90;53.00
71237;DHT22;58984;51.960;5.582;2023-07-22T08:02:04;22.90;53.00
71237;DHT22;58984;51.960;5.582;2023-07-22T08:04:34;23.00;53.00
71237;DHT22;58984;51.960;5.582;2023-07-22T08:07:00;23.00;53.00
71237;DHT22;58984;51.960;5.582;2023-07-22T08:09:25;23.00;53.00
71237;DHT22;58984;51.960;5.582;2023-07-22T08:11:51;23.00;53.00
71237;DHT22;58984;51.960;5.582;2023-07-22T08:14:17;23.10;53.00
71237;DHT22;58984;51.960;5.582;2023-07-22T08:16:44;23.10;53.00
71237;DHT22;58984;51.960;5.582;2023-07-22T08:19:09;23.10;53.00
71237;DHT22;58984;51.960;5.582;2023-07-22T08:21:35;23.10;52.90
71237;DHT22;58984;51.960;5.582;2023-07-22T08:24:00;23.10;52.80
71237;DHT22;58984;51.960;5.582;2023-07-22T08:26:26;23.20;52.80
71237;DHT22;58984;51.960;5.582;2023-07-22T08:28:53;23.20;52.80
71237;DHT22;58984;51.960;5.582;2023-07-22T08:31:19;23.20;52.80
71237;DHT22;58984;51.960;5.582;2023-07-22T08:33:44;23.20;52.80
71237;DHT22;58984;51.960;5.582;2023-07-22T08:36:10;23.20;53.00
71237;DHT22;58984;51.960;5.582;2023-07-22T08:38:36;23.20;52.80
71237;DHT22;58984;51.960;5.582;2023-07-22T08:41:01;23.30;52.90
71237;DHT22;58984;51.960;5.582;2023-07-22T08:43:28;23.30;52.90
71237;DHT22;58984;51.960;5.582;2023-07-22T08:45:55;23.30;52.90
71237;DHT22;58984;51.960;5.582;2023-07-22T08:48:26;23.30;52.80
71237;DHT22;58984;51.960;5.582;2023-07-22T08:51:04;23.30;52.90
71237;DHT22;58984;51.960;5.582;2023-07-22T08:53:31;23.30;52.80
71237;DHT22;58984;51.960;5.582;2023-07-22T08:55:58;23.40;52.90
71237;DHT22;58984;51.960;5.582;2023-07-22T08:58:25;23.40;52.90
71237;DHT22;58984;51.960;5.582;2023-07-22T09:00:51;23.40;52.80
71237;DHT22;58984;51.960;5.582;2023-07-22T09:03:18;23.40;52.80
71237;DHT22;58984;51.960;5.582;2023-07-22T09:05:45;23.40;52.80
71237;DHT22;58984;51.960;5.582;2023-07-22T09:08:10;23.50;53.00
71237;DHT22;58984;51.960;5.582;2023-07-22T09:10:37;23.50;52.90
71237;DHT22;58984;51.960;5.582;2023-07-22T09:13:03;23.50;52.90
71237;DHT22;58984;51.960;5.582;2023-07-22T09:15:32;23.50;52.80
71237;DHT22;58984;51.960;5.582;2023-07-22T09:17:59;23.50;52.80
71237;DHT22;58984;51.960;5.582;2023-07-22T09:20:25;23.50;52.80
71237;DHT22;58984;51.960;5.582;2023-07-22T09:22:53;23.50;52.70
71237;DHT22;58984;51.960;5.582;2023-07-22T09:25:21;23.60;52.80
71237;DHT22;58984;51.960;5.582;2023-07-22T09:27:55;23.60;52.80
71237;DHT22;58984;51.960;5.582;2023-07-22T09:30:25;23.60;52.70
71237;DHT22;58984;51.960;5.582;2023-07-22T09:32:52;23.60;52.60
71237;DHT22;58984;51.960;5.582;2023-07-22T09:35:18;23.60;52.60
71237;DHT22;58984;51.960;5.582;2023-07-22T09:37:44;23.60;52.60
71237;DHT22;58984;51.960;5.582;2023-07-22T09:40:15;23.60;52.60
71237;DHT22;58984;51.960;5.582;2023-07-22T09:42:49;23.60;52.60
71237;DHT22;58984;51.960;5.582;2023-07-22T09:45:16;23.60;52.50
71237;DHT22;58984;51.960;5.582;2023-07-22T09:47:46;23.60;52.50
71237;DHT22;58984;51.960;5.582;2023-07-22T09:50:18;23.70;52.50
71237;DHT22;58984;51.960;5.582;2023-07-22T09:52:45;23.70;52.50
71237;DHT22;58984;51.960;5.582;2023-07-22T09:55:12;23.80;52.60
71237;DHT22;58984;51.960;5.582;2023-07-22T09:57:41;23.80;52.60
71237;DHT22;58984;51.960;5.582;2023-07-22T10:00:10;23.80;52.50
71237;DHT22;58984;51.960;5.582;2023-07-22T10:02:38;23.80;52.40
71237;DHT22;58984;51.960;5.582;2023-07-22T10:05:05;23.80;52.40
71237;DHT22;58984;51.960;5.582;2023-07-22T10:07:33;23.80;52.40
71237;DHT22;58984;51.960;5.582;2023-07-22T10:10:01;23.80;52.40
71237;DHT22;58984;51.960;5.582;2023-07-22T10:12:27;23.90;52.50
71237;DHT22;58984;51.960;5.582;2023-07-22T10:14:53;23.90;53.10
71237;DHT22;58984;51.960;5.582;2023-07-22T10:17:20;23.90;52.50
71237;DHT22;58984;51.960;5.582;2023-07-22T10:19:46;23.90;52.40
71237;DHT22;58984;51.960;5.582;2023-07-22T10:22:12;24.00;52.40
71237;DHT22;58984;51.960;5.582;2023-07-22T10:24:40;24.00;52.30
71237;DHT22;58984;51.960;5.582;2023-07-22T10:27:07;24.00;52.30
71237;DHT22;58984;51.960;5.582;2023-07-22T10:29:33;24.00;52.10
71237;DHT22;58984;51.960;5.582;2023-07-22T10:31:59;24.00;52.10
71237;DHT22;58984;51.960;5.582;2023-07-22T10:34:25;24.00;51.90
71237;DHT22;58984;51.960;5.582;2023-07-22T10:36:50;24.10;52.00
71237;DHT22;58984;51.960;5.582;2023-07-22T10:39:26;24.00;51.80
71237;DHT22;58984;51.960;5.582;2023-07-22T10:42:05;24.00;51.80
71237;DHT22;58984;51.960;5.582;2023-07-22T10:44:32;24.00;51.80
71237;DHT22;58984;51.960;5.582;2023-07-22T10:46:59;24.10;51.90
71237;DHT22;58984;51.960;5.582;2023-07-22T10:49:29;24.10;51.90
71237;DHT22;58984;51.960;5.582;2023-07-22T10:52:07;24.10;51.90
71237;DHT22;58984;51.960;5.582;2023-07-22T10:54:35;24.10;51.90
71237;DHT22;58984;51.960;5.582;2023-07-22T10:59:52;24.00;51.80
71237;DHT22;58984;51.960;5.582;2023-07-22T11:02:25;24.00;51.80
71237;DHT22;58984;51.960;5.582;2023-07-22T11:04:51;24.00;51.80
71237;DHT22;58984;51.960;5.582;2023-07-22T11:07:42;24.10;51.90
71237;DHT22;58984;51.960;5.582;2023-07-22T11:10:16;24.10;51.90
71237;DHT22;58984;51.960;5.582;2023-07-22T11:12:43;24.10;51.90
71237;DHT22;58984;51.960;5.582;2023-07-22T11:15:09;24.10;51.90
71237;DHT22;58984;51.960;5.582;2023-07-22T11:17:35;24.10;51.90
71237;DHT22;58984;51.960;5.582;2023-07-22T11:20:02;24.10;51.90
71237;DHT22;58984;51.960;5.582;2023-07-22T11:22:28;24.10;51.90
71237;DHT22;58984;51.960;5.582;2023-07-22T11:24:55;24.10;51.90
71237;DHT22;58984;51.960;5.582;2023-07-22T11:27:21;24.10;51.90
71237;DHT22;58984;51.960;5.582;2023-07-22T11:29:48;24.00;51.80
71237;DHT22;58984;51.960;5.582;2023-07-22T11:32:18;24.10;51.90
71237;DHT22;58984;51.960;5.582;2023-07-22T11:34:46;24.00;51.80
71237;DHT22;58984;51.960;5.582;2023-07-22T11:37:12;24.00;51.80
71237;DHT22;58984;51.960;5.582;2023-07-22T11:39:39;24.10;51.90
71237;DHT22;58984;51.960;5.582;2023-07-22T11:42:07;24.10;51.90
71237;DHT22;58984;51.960;5.582;2023-07-22T11:44:32;24.10;51.90
71237;DHT22;58984;51.960;5.582;2023-07-22T11:47:03;24.10;51.90
71237;DHT22;58984;51.960;5.582;2023-07-22T11:49:47;24.00;51.80
71237;DHT22;58984;51.960;5.582;2023-07-22T11:52:17;24.00;51.80
71237;DHT22;58984;51.960;5.582;2023-07-22T11:54:45;24.10;51.80
71237;DHT22;58984;51.960;5.582;2023-07-22T11:57:17;24.10;51.80
71237;DHT22;58984;51.960;5.582;2023-07-22T11:59:45;24.10;51.80
71237;DHT22;58984;51.960;5.582;2023-07-22T12:02:18;24.10;51.60
71237;DHT22;58984;51.960;5.582;2023-07-22T12:04:57;24.10;51.50
71237;DHT22;58984;51.960;5.582;2023-07-22T12:07:26;24.10;51.40
71237;DHT22;58984;51.960;5.582;2023-07-22T12:09:55;24.20;51.30
71237;DHT22;58984;51.960;5.582;2023-07-22T12:12:20;24.20;52.00
71237;DHT22;58984;51.960;5.582;2023-07-22T12:14:46;24.20;51.30
71237;DHT22;58984;51.960;5.582;2023-07-22T12:17:12;24.20;51.30
71237;DHT22;58984;51.960;5.582;2023-07-22T12:19:37;24.20;51.30
71237;DHT22;58984;51.960;5.582;2023-07-22T12:22:03;24.20;51.50
71237;DHT22;58984;51.960;5.582;2023-07-22T12:24:29;24.20;51.50
71237;DHT22;58984;51.960;5.582;2023-07-22T12:26:55;24.20;51.80
71237;DHT22;58984;51.960;5.582;2023-07-22T12:29:21;24.20;51.90
71237;DHT22;58984;51.960;5.582;2023-07-22T12:31:47;24.20;51.90
71237;DHT22;58984;51.960;5.582;2023-07-22T12:34:13;24.20;51.90
71237;DHT22;58984;51.960;5.582;2023-07-22T12:36:39;24.20;52.30
71237;DHT22;58984;51.960;5.582;2023-07-22T12:39:05;24.20;52.60
71237;DHT22;58984;51.960;5.582;2023-07-22T12:41:30;24.20;53.00
71237;DHT22;58984;51.960;5.582;2023-07-22T12:43:56;24.20;53.40
71237;DHT22;58984;51.960;5.582;2023-07-22T12:46:21;24.20;53.60
71237;DHT22;58984;51.960;5.582;2023-07-22T12:48:47;24.20;53.50
71237;DHT22;58984;51.960;5.582;2023-07-22T12:51:13;24.20;53.60
71237;DHT22;58984;51.960;5.582;2023-07-22T12:53:39;24.20;53.60
71237;DHT22;58984;51.960;5.582;2023-07-22T12:56:04;24.20;53.60
71237;DHT22;58984;51.960;5.582;2023-07-22T12:58:31;24.10;53.50
71237;DHT22;58984;51.960;5.582;2023-07-22T13:00:57;24.20;53.60
71237;DHT22;58984;51.960;5.582;2023-07-22T13:03:22;24.10;53.30
71237;DHT22;58984;51.960;5.582;2023-07-22T13:05:48;24.10;53.30
71237;DHT22;58984;51.960;5.582;2023-07-22T13:08:13;24.20;53.20
71237;DHT22;58984;51.960;5.582;2023-07-22T13:10:39;24.20;53.20
71237;DHT22;58984;51.960;5.582;2023-07-22T13:13:09;24.20;53.20
71237;DHT22;58984;51.960;5.582;2023-07-22T13:15:34;24.20;53.20
71237;DHT22;58984;51.960;5.582;2023-07-22T13:18:00;24.20;53.10
71237;DHT22;58984;51.960;5.582;2023-07-22T13:20:25;24.20;53.00
71237;DHT22;58984;51.960;5.582;2023-07-22T13:22:51;24.20;53.00
71237;DHT22;58984;51.960;5.582;2023-07-22T13:25:17;24.20;52.90
71237;DHT22;58984;51.960;5.582;2023-07-22T13:27:42;24.30;52.90
71237;DHT22;58984;51.960;5.582;2023-07-22T13:30:08;24.20;52.80
71237;DHT22;58984;51.960;5.582;2023-07-22T13:32:34;24.20;52.70
71237;DHT22;58984;51.960;5.582;2023-07-22T13:34:59;24.30;52.80
71237;DHT22;58984;51.960;5.582;2023-07-22T13:37:25;24.30;52.80
71237;DHT22;58984;51.960;5.582;2023-07-22T13:39:51;24.30;52.80
71237;DHT22;58984;51.960;5.582;2023-07-22T13:42:16;24.30;52.70
71237;DHT22;58984;51.960;5.582;2023-07-22T13:44:42;24.30;52.80
71237;DHT22;58984;51.960;5.582;2023-07-22T13:47:07;24.30;52.80
71237;DHT22;58984;51.960;5.582;2023-07-22T13:49:33;24.30;52.80
71237;DHT22;58984;51.960;5.582;2023-07-22T13:51:58;24.30;52.80
71237;DHT22;58984;51.960;5.582;2023-07-22T13:54:24;24.30;52.80
71237;DHT22;58984;51.960;5.582;2023-07-22T13:56:49;24.30;52.90
71237;DHT22;58984;51.960;5.582;2023-07-22T13:59:15;24.30;52.80
71237;DHT22;58984;51.960;5.582;2023-07-22T14:01:41;24.30;52.80
71237;DHT22;58984;51.960;5.582;2023-07-22T14:04:06;24.30;52.80
71237;DHT22;58984;51.960;5.582;2023-07-22T14:06:32;24.30;52.80
71237;DHT22;58984;51.960;5.582;2023-07-22T14:09:00;24.30;52.80
71237;DHT22;58984;51.960;5.582;2023-07-22T14:11:26;24.20;52.60
71237;DHT22;58984;51.960;5.582;2023-07-22T14:13:51;24.30;52.80
71237;DHT22;58984;51.960;5.582;2023-07-22T14:16:17;24.30;52.80
71237;DHT22;58984;51.960;5.582;2023-07-22T14:18:43;24.20;53.40
71237;DHT22;58984;51.960;5.582;2023-07-22T14:21:09;24.20;52.80
71237;DHT22;58984;51.960;5.582;2023-07-22T14:23:37;24.20;52.80
71237;DHT22;58984;51.960;5.582;2023-07-22T14:26:02;24.20;52.70
71237;DHT22;58984;51.960;5.582;2023-07-22T14:28:28;24.20;52.70
71237;DHT22;58984;51.960;5.582;2023-07-22T14:30:53;24.20;52.80
71237;DHT22;58984;51.960;5.582;2023-07-22T14:33:19;24.30;52.80
71237;DHT22;58984;51.960;5.582;2023-07-22T14:35:45;24.20;52.70
71237;DHT22;58984;51.960;5.582;2023-07-22T14:38:10;24.20;52.60
71237;DHT22;58984;51.960;5.582;2023-07-22T14:40:36;24.30;52.70
71237;DHT22;58984;51.960;5.582;2023-07-22T14:43:02;24.20;52.50
71237;DHT22;58984;51.960;5.582;2023-07-22T14:45:27;24.30;52.60
71237;DHT22;58984;51.960;5.582;2023-07-22T14:47:53;24.30;52.60
71237;DHT22;58984;51.960;5.582;2023-07-22T14:50:18;24.30;52.60
71237;DHT22;58984;51.960;5.582;2023-07-22T14:52:44;24.30;52.50
71237;DHT22;58984;51.960;5.582;2023-07-22T14:55:10;24.30;52.50
71237;DHT22;58984;51.960;5.582;2023-07-22T14:57:35;24.40;52.50
71237;DHT22;58984;51.960;5.582;2023-07-22T15:00:01;24.40;52.50
71237;DHT22;58984;51.960;5.582;2023-07-22T15:02:27;24.40;52.50
71237;DHT22;58984;51.960;5.582;2023-07-22T15:04:52;24.40;52.40
71237;DHT22;58984;51.960;5.582;2023-07-22T15:07:18;24.40;52.30
71237;DHT22;58984;51.960;5.582;2023-07-22T15:09:43;24.40;52.20
71237;DHT22;58984;51.960;5.582;2023-07-22T15:12:09;24.40;52.10
71237;DHT22;58984;51.960;5.582;2023-07-22T15:14:36;24.40;52.10
71237;DHT22;58984;51.960;5.582;2023-07-22T15:17:01;24.40;52.10
71237;DHT22;58984;51.960;5.582;2023-07-22T15:19:27;24.40;52.10
71237;DHT22;58984;51.960;5.582;2023-07-22T15:21:53;24.40;52.10
71237;DHT22;58984;51.960;5.582;2023-07-22T15:24:19;24.40;52.10
71237;DHT22;58984;51.960;5.582;2023-07-22T15:26:44;24.40;52.10
71237;DHT22;58984;51.960;5.582;2023-07-22T15:29:10;24.40;52.10